Kenansville, NC

6:08 AM EST on December 13, 2019 (GMT -0500)
Duplin County

Weather History for KDPL - November, 2019

Change the Weather History Date:

Saturday, November 16, 2019

  Actual Average (KOAJ) Record (KOAJ)
Temperature  
Mean Temperature 45 °F -  
Max Temperature 48 °F 61 °F 82 °F (2011)
Min Temperature 42 °F 39 °F 28 °F (2000)
Degree Days  
Heating Degree Days 20    
Moisture  
Dew Point 41 °F    
Average Humidity 86    
Maximum Humidity 100    
Minimum Humidity 66    
Precipitation  
Precipitation 0.19 in - - ()
Sea Level Pressure  
Sea Level Pressure 30.02 in    
Wind  
Wind Speed 16 mph (NNE)    
Max Wind Speed 25 mph    
Max Gust Speed 39 mph    
Visibility 8 miles    
Events Rain    
Averages and records for this station are not official NWS values.
T = Trace of Precipitation, MM = Missing Value Source: NWS Daily Summary

Daily Weather History Graph

Daily Weather History Graph

Search for Another Location

Airport or City:

Astronomy

Nov. 16, 2019 Rise Set
Actual Time 6:47 AM EST 5:05 PM EST
Civil Twilight 6:20 AM EST 5:32 PM EST
Nautical Twilight 5:49 AM EST 6:03 PM EST
Astronomical Twilight 5:19 AM EST 6:33 PM EST
Moon 8:40 PM EST (11/16) 10:35 AM EST (11/16)
Length of Visible Light 11h 12m
Length of Day
10h 18m
Waning Gibbous, 82% of the Moon is Illuminated
Nov 16
Waning Gibbous
Nov 19
Last Quarter
Nov 26
New
Dec 4
First Quarter
Dec 12
Full

Hourly Weather History & Observations

Time (EST) Temp. Windchill Dew Point Humidity Pressure Visibility Wind Dir Wind Speed Gust Speed Precip Events Conditions
12:15 AM 44.6 °F 38.4 °F 44.6 °F 100% 30.02 in 10.0 mi North 12.7 mph 23.0 mph N/A Rain Light Rain
12:35 AM 44.6 °F 37.4 °F 44.6 °F 100% 30.01 in 7.0 mi North 16.1 mph 20.7 mph N/A   Light Drizzle
12:55 AM 44.6 °F 37.8 °F 44.6 °F 100% 30.01 in 5.0 mi North 15.0 mph - N/A   Light Drizzle
1:15 AM 44.6 °F 38.1 °F 44.6 °F 100% 30.00 in 7.0 mi North 13.8 mph 24.2 mph N/A   Light Drizzle
1:35 AM 44.6 °F 38.1 °F 44.6 °F 100% 30.01 in 5.0 mi NNE 13.8 mph 25.3 mph N/A Rain Light Rain
1:55 AM 44.6 °F 37.8 °F 44.6 °F 100% 30.01 in 3.5 mi North 15.0 mph 24.2 mph N/A Rain Light Rain
2:35 AM 44.6 °F 37.8 °F 44.6 °F 100% 30.00 in 4.0 mi North 15.0 mph 20.7 mph 0.01 in Rain Light Rain
3:35 AM 44.6 °F 36.6 °F 42.8 °F 93% 29.99 in 7.0 mi NNE 19.6 mph 24.2 mph N/A   Light Drizzle
3:55 AM 44.6 °F 38.4 °F 42.8 °F 93% 30.00 in 7.0 mi NNE 12.7 mph 23.0 mph N/A   Overcast
4:15 AM 44.6 °F 38.4 °F 42.8 °F 93% 29.99 in 5.0 mi NNE 12.7 mph 25.3 mph 0.01 in Rain Light Rain
4:35 AM 44.6 °F 38.4 °F 42.8 °F 93% 29.99 in 5.0 mi NNE 12.7 mph 21.9 mph 0.02 in Rain Light Rain
4:55 AM 44.6 °F 38.4 °F 42.8 °F 93% 29.99 in 5.0 mi NNE 12.7 mph 21.9 mph 0.03 in Rain Light Rain
5:15 AM 44.6 °F 40.2 °F 42.8 °F 93% 30.00 in 10.0 mi NNE 8.1 mph 19.6 mph N/A Rain Light Rain
5:35 AM 44.6 °F 40.2 °F 42.8 °F 93% 30.00 in 10.0 mi NNE 8.1 mph 19.6 mph N/A   Overcast
5:55 AM 44.6 °F 40.2 °F 41.0 °F 87% 30.01 in 10.0 mi NNE 8.1 mph 23.0 mph 0.01 in   Overcast
6:15 AM 44.6 °F 38.8 °F 41.0 °F 87% 30.01 in 10.0 mi NNE 11.5 mph 21.9 mph N/A   Overcast
6:35 AM 44.6 °F 38.8 °F 41.0 °F 87% 30.01 in 10.0 mi NNE 11.5 mph 25.3 mph N/A   Overcast
6:55 AM 46.4 °F 41.5 °F 39.2 °F 76% 30.03 in 10.0 mi NNE 10.4 mph 24.2 mph N/A   Overcast
7:15 AM 46.4 °F 40.7 °F 39.2 °F 76% 30.04 in 10.0 mi NNE 12.7 mph 19.6 mph N/A   Overcast
7:55 AM 46.4 °F 39.2 °F 37.4 °F 71% 30.05 in 10.0 mi NNE 18.4 mph 23.0 mph N/A   Light Drizzle
8:15 AM 46.4 °F 39.5 °F 37.4 °F 71% 30.05 in 10.0 mi NNE 17.3 mph 27.6 mph N/A   Overcast
8:35 AM 46.4 °F 39.2 °F 37.4 °F 71% 30.06 in 10.0 mi North 18.4 mph 23.0 mph N/A   Overcast
8:55 AM 48.2 °F - 37.4 °F 66% 30.06 in 10.0 mi NNE 23.0 mph 32.2 mph N/A   Overcast
9:15 AM 48.2 °F - 37.4 °F 66% 30.06 in 10.0 mi NNE 18.4 mph 31.1 mph N/A   Overcast
9:35 AM 48.2 °F - 39.2 °F 71% 30.06 in 10.0 mi NNE 21.9 mph 34.5 mph N/A   Overcast
9:55 AM 48.2 °F - 39.2 °F 71% 30.07 in 7.0 mi NNE 16.1 mph 39.1 mph N/A   Overcast
10:15 AM 48.2 °F - 39.2 °F 71% 30.07 in 10.0 mi NNE 21.9 mph 31.1 mph N/A   Overcast
10:35 AM 48.2 °F - 39.2 °F 71% 30.06 in 7.0 mi NNE 16.1 mph 31.1 mph N/A   Overcast
10:55 AM 48.2 °F - 39.2 °F 71% 30.06 in 7.0 mi NNE 21.9 mph 33.4 mph N/A   Overcast
11:15 AM 48.2 °F - 39.2 °F 71% 30.06 in 7.0 mi NNE 23.0 mph 31.1 mph N/A   Overcast
11:35 AM 48.2 °F - 39.2 °F 71% 30.06 in 7.0 mi NNE 17.3 mph 31.1 mph N/A   Overcast
11:55 AM 48.2 °F - 39.2 °F 71% 30.05 in 7.0 mi NNE 20.7 mph 31.1 mph N/A   Overcast
12:15 PM 48.2 °F - 41.0 °F 76% 30.04 in 7.0 mi NNE 15.0 mph 35.7 mph N/A   Overcast
12:35 PM 46.4 °F 38.3 °F 41.0 °F 81% 30.03 in 7.0 mi NNE 23.0 mph 32.2 mph N/A   Overcast
12:55 PM 46.4 °F 38.7 °F 41.0 °F 81% 30.02 in 5.0 mi NNE 20.7 mph 33.4 mph N/A Rain Light Rain
1:15 PM 46.4 °F 38.7 °F 42.8 °F 87% 30.01 in 7.0 mi NNE 20.7 mph 28.8 mph N/A   Overcast
1:35 PM 46.4 °F 38.3 °F 42.8 °F 87% 30.01 in 7.0 mi NNE 23.0 mph 36.8 mph N/A   Overcast
1:55 PM 46.4 °F 39.2 °F 42.8 °F 87% 30.01 in 10.0 mi NNE 18.4 mph 29.9 mph N/A   Overcast
2:15 PM 46.4 °F 39.8 °F 42.8 °F 87% 30.02 in 7.0 mi NNE 16.1 mph 28.8 mph N/A   Overcast
2:35 PM 46.4 °F 39.8 °F 42.8 °F 87% 30.02 in 5.0 mi NNE 16.1 mph 28.8 mph N/A Rain Light Rain
2:55 PM 46.4 °F 38.7 °F 42.8 °F 87% 30.03 in 7.0 mi North 20.7 mph 26.5 mph N/A   Light Drizzle
3:15 PM 46.4 °F 38.1 °F 42.8 °F 87% 30.03 in 10.0 mi North 24.2 mph 32.2 mph N/A   Overcast
3:35 PM 46.4 °F 39.2 °F 42.8 °F 87% 30.03 in 10.0 mi NNE 18.4 mph 28.8 mph N/A   Overcast
3:55 PM 46.4 °F 38.5 °F 42.8 °F 87% 30.02 in 10.0 mi North 21.9 mph 34.5 mph N/A   Light Drizzle
4:15 PM 44.6 °F 37.4 °F 42.8 °F 93% 30.02 in 4.0 mi NNE 16.1 mph 31.1 mph N/A Rain Rain
4:35 PM 44.6 °F 35.9 °F 42.8 °F 93% 30.01 in 10.0 mi NNE 23.0 mph 32.2 mph N/A Rain Light Rain
4:55 PM 44.6 °F 36.4 °F 41.0 °F 87% 30.00 in 10.0 mi North 20.7 mph 35.7 mph N/A   Overcast
5:15 PM 44.6 °F 35.7 °F 41.0 °F 87% 30.01 in 10.0 mi NNE 24.2 mph 32.2 mph N/A   Overcast
5:35 PM 44.6 °F 35.5 °F 41.0 °F 87% 30.01 in 10.0 mi NNE 25.3 mph 34.5 mph N/A   Overcast
5:55 PM 44.6 °F 37.2 °F 41.0 °F 87% 30.01 in 10.0 mi NNE 17.3 mph 29.9 mph N/A   Overcast
6:15 PM 44.6 °F 37.2 °F 41.0 °F 87% 30.02 in 7.0 mi NNE 17.3 mph 36.8 mph N/A Rain Light Rain
6:35 PM 44.6 °F 37.2 °F 41.0 °F 87% 30.02 in 5.0 mi NNE 17.3 mph 32.2 mph 0.03 in Rain Rain
7:15 PM 42.8 °F 34.0 °F 41.0 °F 93% 30.03 in 5.0 mi North 20.7 mph 28.8 mph 0.03 in   Overcast
7:35 PM 42.8 °F 34.3 °F 41.0 °F 93% 30.03 in 10.0 mi North 19.6 mph 32.2 mph 0.05 in Rain Light Rain
7:55 PM 42.8 °F 34.5 °F 41.0 °F 93% 30.03 in 10.0 mi North 18.4 mph 31.1 mph 0.05 in   Overcast
8:15 PM 42.8 °F 33.8 °F 41.0 °F 93% 30.01 in 10.0 mi North 21.9 mph 27.6 mph N/A   Overcast
8:55 PM 42.8 °F 34.5 °F 41.0 °F 93% 30.03 in 10.0 mi North 18.4 mph 24.2 mph N/A   Light Drizzle
9:15 PM 42.8 °F 34.8 °F 41.0 °F 93% 30.04 in 7.0 mi North 17.3 mph 28.8 mph N/A Rain Light Rain
9:35 PM 42.8 °F 34.8 °F 39.2 °F 87% 30.03 in 7.0 mi North 17.3 mph 28.8 mph N/A Rain Light Rain
9:55 PM 42.8 °F 35.1 °F 39.2 °F 87% 30.03 in 7.0 mi North 16.1 mph 28.8 mph 0.01 in Rain Light Rain
10:15 PM 42.8 °F 34.8 °F 39.2 °F 87% 30.03 in 7.0 mi NNE 17.3 mph 27.6 mph 0.01 in Rain Rain
10:55 PM 42.8 °F 33.8 °F 39.2 °F 87% 30.02 in 7.0 mi North 21.9 mph 28.8 mph 0.02 in Rain Light Rain
11:15 PM 42.8 °F 33.8 °F 39.2 °F 87% 30.01 in 7.0 mi North 21.9 mph 32.2 mph N/A Rain Light Rain
11:35 PM 42.8 °F 34.5 °F 41.0 °F 93% 30.00 in 7.0 mi North 18.4 mph 27.6 mph 0.01 in Rain Light Rain
11:55 PM 42.8 °F 34.5 °F 41.0 °F 93% 30.00 in 7.0 mi North 18.4 mph 25.3 mph 0.03 in Rain Rain